Time;durP1;ratioP1;P1;durP2;ratioP2;P2;SDS_P1;SDS_P2;PMS_P1;PMS_P2;Temp;Humidity;BMP_temperature;BMP_pressure;BME280_temperature;BME280_humidity;BME280_pressure;Samples;Min_cycle;Max_cycle;Signal;HPM_P1;HPM_P2
2021/10/04 00:05:35;;;;;;;3.50;1.80;;;;;;;;;;21082832;28;20051;-65
2021/10/04 00:15:38;;;;;;;2.72;1.30;;;;;;;;;;21082410;28;20048;-63
2021/10/04 00:25:39;;;;;;;3.47;1.05;;;;;;;;;;21083978;28;20051;-66
2021/10/04 00:35:42;;;;;;;4.72;1.20;;;;;;;;;;21090725;28;20047;-61
2021/10/04 00:45:44;;;;;;;4.20;1.40;;;;;;;;;;21082182;28;20044;-64
2021/10/04 00:55:46;;;;;;;3.55;1.40;;;;;;;;;;21080468;28;20044;-65
2021/10/04 01:05:47;;;;;;;2.92;1.38;;;;;;;;;;21083581;28;20063;-65
2021/10/04 01:15:50;;;;;;;4.10;1.70;;;;;;;;;;21083981;28;20048;-64
2021/10/04 01:25:52;;;;;;;3.58;1.85;;;;;;;;;;21084802;28;20044;-60
2021/10/04 01:35:55;;;;;;;3.33;1.60;;;;;;;;;;21078707;28;20415;-65
2021/10/04 01:46:00;;;;;;;;;;;;;;;;;;21078313;28;20131;-62
2021/10/04 01:56:08;;;;;;;3.55;1.58;;;;;;;;;;21078186;28;19924;-60
2021/10/04 02:06:14;;;;;;;2.92;1.42;;;;;;;;;;21065219;28;20156;-66
2021/10/04 02:16:20;;;;;;;5.05;2.15;;;;;;;;;;21091285;28;20048;-64
2021/10/04 02:26:41;;;;;;;4.18;1.67;;;;;;;;;;21089211;28;20044;-63
2021/10/04 02:37:03;;;;;;;3.47;1.40;;;;;;;;;;21074995;28;20510;-59
2021/10/04 02:47:24;;;;;;;2.92;1.50;;;;;;;;;;21087887;28;20052;-64
2021/10/04 02:57:36;;;;;;;4.15;1.80;;;;;;;;;;21087483;28;20087;-63
2021/10/04 03:07:44;;;;;;;5.20;2.00;;;;;;;;;;21086946;28;20048;-61
2021/10/04 03:17:55;;;;;;;4.68;3.13;;;;;;;;;;21084789;28;20044;-61
2021/10/04 03:28:06;;;;;;;7.55;2.95;;;;;;;;;;21084738;28;20132;-68
2021/10/04 03:38:27;;;;;;;4.97;2.30;;;;;;;;;;21085769;28;20052;-67
2021/10/04 03:48:49;;;;;;;2.17;1.00;;;;;;;;;;21083508;28;20063;-63
2021/10/04 03:59:10;;;;;;;3.42;1.50;;;;;;;;;;21085444;28;20454;-62
2021/10/04 04:09:29;;;;;;;5.70;1.80;;;;;;;;;;21066064;28;20172;-60
2021/10/04 04:19:42;;;;;;;4.00;2.00;;;;;;;;;;21081338;28;20413;-67
2021/10/04 04:29:57;;;;;;;6.72;2.67;;;;;;;;;;21079204;28;20052;-64
2021/10/04 04:40:06;;;;;;;4.35;1.98;;;;;;;;;;21079743;28;20117;-67
2021/10/04 04:50:29;;;;;;;8.25;2.80;;;;;;;;;;21078853;28;20051;-67
2021/10/04 05:00:42;;;;;;;4.35;2.25;;;;;;;;;;21079244;28;20404;-61
2021/10/04 05:10:51;;;;;;;48.47;35.50;;;;;;;;;;21078620;28;20054;-67
2021/10/04 05:21:00;;;;;;;5.28;2.40;;;;;;;;;;21080022;28;20047;-61
2021/10/04 05:31:09;;;;;;;3.53;1.73;;;;;;;;;;21079167;28;20052;-65
2021/10/04 05:41:20;;;;;;;4.72;1.80;;;;;;;;;;21070191;28;20055;-65
2021/10/04 05:51:23;;;;;;;4.22;1.92;;;;;;;;;;21095758;28;20054;-62
2021/10/04 06:01:28;;;;;;;2.63;1.50;;;;;;;;;;21111841;28;20059;-66
2021/10/04 06:11:31;;;;;;;3.42;1.63;;;;;;;;;;21107823;28;20480;-63
2021/10/04 06:21:34;;;;;;;2.42;1.20;;;;;;;;;;21089814;28;20051;-66
2021/10/04 06:31:36;;;;;;;3.15;1.70;;;;;;;;;;21071098;28;20052;-67
2021/10/04 06:41:40;;;;;;;5.05;1.35;;;;;;;;;;21088202;28;20139;-65
2021/10/04 06:51:42;;;;;;;2.88;1.23;;;;;;;;;;21087901;28;20539;-66
2021/10/04 07:01:44;;;;;;;6.38;1.95;;;;;;;;;;21086828;28;20056;-67
2021/10/04 07:11:46;;;;;;;6.50;1.88;;;;;;;;;;21086980;28;20075;-63
2021/10/04 07:21:51;;;;;;;5.18;1.50;;;;;;;;;;21084497;28;20189;-63
2021/10/04 07:31:53;;;;;;;2.53;1.30;;;;;;;;;;21065824;28;20097;-61
2021/10/04 07:41:57;;;;;;;3.95;1.45;;;;;;;;;;21083692;28;20373;-62
2021/10/04 07:52:00;;;;;;;2.58;1.20;;;;;;;;;;21082691;28;20048;-65
2021/10/04 08:02:02;;;;;;;3.88;1.67;;;;;;;;;;21081215;28;20087;-63
2021/10/04 08:12:04;;;;;;;4.18;1.40;;;;;;;;;;21082154;28;20044;-62
2021/10/04 08:22:06;;;;;;;12.38;2.33;;;;;;;;;;21080468;28;20052;-71
2021/10/04 08:32:08;;;;;;;6.90;1.50;;;;;;;;;;21080462;28;20151;-60
2021/10/04 08:42:10;;;;;;;3.65;1.30;;;;;;;;;;21080175;28;20048;-59
2021/10/04 08:52:12;;;;;;;4.10;1.05;;;;;;;;;;21078860;28;20503;-59
2021/10/04 09:02:21;;;;;;;4.57;1.10;;;;;;;;;;21077971;28;20078;-66
2021/10/04 09:12:23;;;;;;;6.13;3.03;;;;;;;;;;21080964;28;20043;-69
2021/10/04 09:22:24;;;;;;;3.95;1.20;;;;;;;;;;21100650;28;20047;-59
2021/10/04 09:32:27;;;;;;;4.28;1.23;;;;;;;;;;21167224;28;20502;-57
2021/10/04 09:42:37;;;;;;;3.97;1.27;;;;;;;;;;21166397;28;20127;-58
2021/10/04 09:52:43;;;;;;;5.03;1.27;;;;;;;;;;21143050;28;20165;-56
2021/10/04 10:02:45;;;;;;;2.80;1.10;;;;;;;;;;21155933;27;20055;-62
2021/10/04 10:12:48;;;;;;;5.90;1.30;;;;;;;;;;21156082;28;20481;-59
2021/10/04 10:22:52;;;;;;;6.57;1.92;;;;;;;;;;21171753;28;20048;-57
2021/10/04 10:32:54;;;;;;;;;;;;;;;;;;21173660;28;20048;-58
2021/10/04 10:43:09;;;;;;;4.50;2.10;;;;;;;;;;21171807;28;19975;-58
2021/10/04 10:53:16;;;;;;;4.03;1.60;;;;;;;;;;21171215;28;20048;-59
2021/10/04 11:03:20;;;;;;;4.20;1.73;;;;;;;;;;21170331;28;20143;-60
2021/10/04 11:13:23;;;;;;;5.22;1.17;;;;;;;;;;21170051;28;20052;-56
2021/10/04 11:23:25;;;;;;;5.03;1.03;;;;;;;;;;21169242;28;20044;-59
2021/10/04 11:33:29;;;;;;;2.85;1.00;;;;;;;;;;21168156;28;20048;-61
2021/10/04 11:43:36;;;;;;;1.63;0.60;;;;;;;;;;21167440;28;20135;-57
2021/10/04 11:53:42;;;;;;;2.17;1.10;;;;;;;;;;21166847;28;20071;-59
2021/10/04 12:04:00;;;;;;;2.80;1.40;;;;;;;;;;21406716;27;20512;-58
2021/10/04 12:14:03;;;;;;;2.60;1.10;;;;;;;;;;21407468;27;20146;-65
2021/10/04 12:24:18;;;;;;;1.88;0.70;;;;;;;;;;21407167;27;20562;-59
2021/10/04 12:34:24;;;;;;;2.55;0.80;;;;;;;;;;21405278;27;20509;-67
2021/10/04 12:44:26;;;;;;;2.20;0.70;;;;;;;;;;21404458;27;20091;-67
2021/10/04 12:54:29;;;;;;;2.30;0.93;;;;;;;;;;21404335;27;20197;-63
2021/10/04 13:04:33;;;;;;;2.60;1.00;;;;;;;;;;21403621;27;20055;-62
2021/10/04 13:14:35;;;;;;;2.70;0.90;;;;;;;;;;21350122;27;20046;-59
2021/10/04 13:24:39;;;;;;;;;;;;;;;;;;21326828;27;20098;-69
2021/10/04 13:34:43;;;;;;;2.33;1.10;;;;;;;;;;21343817;27;19919;-68
2021/10/04 13:44:45;;;;;;;3.15;0.73;;;;;;;;;;21343077;27;20296;-69
2021/10/04 13:54:48;;;;;;;3.17;0.80;;;;;;;;;;21323423;27;20054;-67
2021/10/04 14:04:50;;;;;;;2.20;0.80;;;;;;;;;;21340829;27;20399;-60
2021/10/04 14:15:00;;;;;;;1.98;0.63;;;;;;;;;;21340667;27;20089;-63
2021/10/04 14:25:06;;;;;;;1.92;0.70;;;;;;;;;;21339238;27;20043;-67
2021/10/04 14:35:10;;;;;;;1.75;0.70;;;;;;;;;;21340088;27;20065;-60
2021/10/04 14:45:13;;;;;;;3.50;1.10;;;;;;;;;;21340074;27;20440;-58
2021/10/04 14:55:16;;;;;;;3.03;0.90;;;;;;;;;;21317705;27;20046;-60
2021/10/04 15:05:20;;;;;;;3.30;0.90;;;;;;;;;;21336368;27;20078;-58
2021/10/04 15:15:24;;;;;;;3.58;0.80;;;;;;;;;;21336016;27;20047;-58
2021/10/04 15:25:30;;;;;;;1.35;0.60;;;;;;;;;;21335212;27;20149;-57
2021/10/04 15:35:33;;;;;;;1.52;0.60;;;;;;;;;;21333830;27;20051;-64
2021/10/04 15:45:35;;;;;;;3.63;0.83;;;;;;;;;;21333137;27;20042;-60
2021/10/04 15:55:38;;;;;;;1.30;0.70;;;;;;;;;;21333169;27;20058;-59
2021/10/04 16:05:42;;;;;;;1.55;0.60;;;;;;;;;;21332028;27;20420;-60
2021/10/04 16:15:46;;;;;;;1.00;0.60;;;;;;;;;;21331852;27;20131;-72
2021/10/04 16:25:50;;;;;;;3.63;1.38;;;;;;;;;;21330823;27;20042;-60
2021/10/04 16:35:52;;;;;;;2.20;1.00;;;;;;;;;;21330646;27;20051;-65
2021/10/04 16:45:55;;;;;;;2.57;1.30;;;;;;;;;;21339827;27;20466;-61
2021/10/04 16:56:01;;;;;;;4.75;1.35;;;;;;;;;;21328264;27;20508;-58
2021/10/04 17:06:04;;;;;;;3.30;0.70;;;;;;;;;;21346782;27;20162;-69
2021/10/04 17:16:08;;;;;;;3.22;0.90;;;;;;;;;;21347000;27;20051;-62
2021/10/04 17:26:15;;;;;;;1.25;0.60;;;;;;;;;;21326181;27;20473;-58
2021/10/04 17:36:21;;;;;;;4.22;2.70;;;;;;;;;;21343975;27;20440;-59
2021/10/04 17:46:23;;;;;;;;;;;;;;;;;;21344491;27;20043;-58
2021/10/04 17:56:26;;;;;;;0.95;0.55;;;;;;;;;;21341168;27;20006;-57
2021/10/04 18:06:29;;;;;;;2.95;0.80;;;;;;;;;;21340677;27;20077;-57
2021/10/04 18:16:33;;;;;;;9.50;1.33;;;;;;;;;;21341715;27;20049;-70
2021/10/04 18:26:37;;;;;;;2.10;0.98;;;;;;;;;;21340961;27;20043;-58
2021/10/04 18:36:40;;;;;;;3.72;1.10;;;;;;;;;;21339423;27;20047;-62
2021/10/04 18:46:42;;;;;;;5.22;1.33;;;;;;;;;;21338795;27;20406;-57
2021/10/04 18:56:45;;;;;;;2.28;1.23;;;;;;;;;;21316401;27;20062;-58
2021/10/04 19:06:47;;;;;;;4.05;1.10;;;;;;;;;;21335703;27;20049;-58
2021/10/04 19:16:49;;;;;;;3.88;1.40;;;;;;;;;;21335644;27;20133;-66
2021/10/04 19:26:51;;;;;;;4.20;2.28;;;;;;;;;;21316233;27;20534;-69
2021/10/04 19:36:53;;;;;;;3.97;1.33;;;;;;;;;;21334532;27;20057;-58
2021/10/04 19:46:55;;;;;;;2.70;1.30;;;;;;;;;;21333779;27;20043;-62
2021/10/04 19:56:57;;;;;;;4.13;2.05;;;;;;;;;;21332703;27;20146;-57
2021/10/04 20:07:00;;;;;;;5.75;1.85;;;;;;;;;;21333341;27;20051;-59
2021/10/04 20:17:03;;;;;;;4.63;1.50;;;;;;;;;;21335649;27;20162;-60
2021/10/04 20:27:05;;;;;;;5.90;2.70;;;;;;;;;;21350426;27;20456;-58
2021/10/04 20:37:08;;;;;;;6.38;3.15;;;;;;;;;;21348877;27;20410;-59
2021/10/04 20:47:11;;;;;;;4.88;2.05;;;;;;;;;;21347923;27;20038;-58
2021/10/04 20:57:13;;;;;;;3.60;1.88;;;;;;;;;;21347583;27;20055;-57
2021/10/04 21:07:16;;;;;;;5.18;1.90;;;;;;;;;;21346693;27;20038;-58
2021/10/04 21:17:19;;;;;;;5.20;2.97;;;;;;;;;;21346269;27;20462;-58
2021/10/04 21:27:24;;;;;;;5.17;1.20;;;;;;;;;;21344530;27;20066;-58
2021/10/04 21:37:26;;;;;;;1.90;1.10;;;;;;;;;;21345453;27;20055;-59
2021/10/04 21:47:28;;;;;;;2.85;1.25;;;;;;;;;;21344114;27;20146;-59
2021/10/04 21:57:31;;;;;;;3.53;1.10;;;;;;;;;;21345265;27;20074;-69
2021/10/04 22:17:39;;;;;;;6.63;1.23;;;;;;;;;;21342976;27;20397;-66
2021/10/04 22:27:41;;;;;;;3.63;1.17;;;;;;;;;;21340574;27;20053;-65
2021/10/04 22:37:43;;;;;;;5.47;2.20;;;;;;;;;;21339855;27;20051;-70
2021/10/04 22:47:46;;;;;;;3.78;1.40;;;;;;;;;;21321852;27;20418;-69
2021/10/04 22:57:48;;;;;;;3.83;1.70;;;;;;;;;;21339752;27;20497;-72
2021/10/04 23:07:51;;;;;;;3.38;1.73;;;;;;;;;;21338522;27;20046;-71
2021/10/04 23:17:53;;;;;;;2.28;1.20;;;;;;;;;;21340023;27;20050;-70
2021/10/04 23:27:55;;;;;;;2.72;1.00;;;;;;;;;;21321411;27;20054;-69
2021/10/04 23:37:57;;;;;;;2.58;1.40;;;;;;;;;;21338220;27;20046;-68
2021/10/04 23:47:59;;;;;;;2.63;1.23;;;;;;;;;;21336677;27;20051;-68
2021/10/04 23:58:01;;;;;;;1.77;0.90;;;;;;;;;;21337539;27;20501;-68
